Licking, Indiana
Current Conditions -  °F | °C
As of 8:53 AM on Sunday 23 Nov 2014 (Local Time) from KMIE Reporting Station
Clear Clear  
Wind Chill: 51°   Ceiling: Unl
Heat Index: 51°   Visibility: 10mi
Dew Point: 41°   Wind: 12mph
Humidity: 68%   Direction: 190°S
Pressure: 29.9"   Gusts: NA
Location:  40.4568°N, 85.3505°W
Report Text: KMIE 231353Z 19010KT 10SM CLR 11/05 A2990 RMK AO2 SLP122 T01060050
Loading
Personal Weather Stations






























Interactive Weather Map New forecast layout! Learn more

10-Day Weather Forecast

Advertisements
Track Severe Weather on mobile